Sweeney Granite Mountains, California Weather observations

Data are for 10 minute period ending at time listed.
 Day   Time   Solar   Ave.   Ave.  Ave.  Vector  Max.   Baro.   Total    
  of    of     Rad.   Air    Rel.  Wind   Wind   Wind  Press.  Precip.   
Year   Day            Temp.  Hum.  Speed  Dir.   Gust                    
2017   (PST)  Kw/m2    F      %     mph   deg.    mph    mb.     in.     
-------------------------------------------------------------------------
  17   20:10   0.00   37.5    55    3.1   283     3.9   871.9    0.00 
  17   20:20   0.00   38.2    53    2.9   281     3.8   871.9    0.00 
  17   20:30   0.00   38.2    53    3.6   287     4.4   871.9    0.00 
  17   20:40   0.00   38.3    52    4.1   278     4.7   872.0    0.00 
  17   20:50   0.00   37.6    54    3.7   270     4.7   872.1    0.00 
  17   21:00   0.00   38.4    51    2.6   278     3.9   872.1    0.00 
  17   21:10   0.00   38.1    52    2.8   286     4.2   872.1    0.00 
  17   21:20   0.00   37.9    52    2.4   278     4.2   872.1    0.00 
  17   21:30   0.00   37.7    53    1.7   315     2.6   872.1    0.00 
  17   21:40   0.00   37.6    52    2.4   282     3.4   872.1    0.00 
  17   21:50   0.00   37.2    54    2.4   284     3.5   872.1    0.00 
  17   22:00   0.00   38.4    51    2.9   294     3.4   872.1    0.00 
  17   22:10   0.00   36.4    56    3.1   282     4.3   872.1    0.00 
  17   22:20   0.00   37.4    54    2.9   277     3.6   872.2    0.00 
  17   22:30   0.00   36.1    57    2.6   296     3.4   872.3    0.00 
  17   22:40   0.00   34.0    62    3.3   286     3.9   872.3    0.00 
  17   22:50   0.00   35.0    59    2.5   298     3.1   872.3    0.00 
  17   23:00   0.00   34.5    60    2.8   283     3.7   872.3    0.00 
  17   23:10   0.00   35.3    58    1.9   300     3.2   872.4    0.00 
  17   23:20   0.00   36.0    57    1.9   294     3.4   872.3    0.00 
  17   23:30   0.00   36.7    54    3.4   286     4.3   872.3    0.00 
  17   23:40   0.00   35.2    59    4.3   281     5.0   872.2    0.00 
  17   23:50   0.00   37.6    52    3.2   274     4.7   872.2    0.00 
  18    0:00   0.00   36.8    54    2.2   286     4.5   872.2    0.00 
  18    0:10   0.00   37.0    53    3.3   281     4.9   872.2    0.00 
  18    0:20   0.00   36.6    54    3.4   290     5.0   872.2    0.00 
  18    0:30   0.00   36.5    54    3.8   281     5.1   872.2    0.00 
  18    0:40   0.00   36.1    55    3.5   292     5.0   872.1    0.00 
  18    0:50   0.00   36.2    54    3.8   284     5.3   872.1    0.00 
  18    1:00   0.00   37.5    50    1.8   294     3.9   872.1    0.00 
  18    1:10   0.00   37.1    51    2.1   290     3.3   872.1    0.00 
  18    1:20   0.00   35.2    56    2.7   279     5.0   872.1    0.00 
  18    1:30   0.00   35.4    54    2.3   316     4.4   872.2    0.00 
  18    1:40   0.00   34.8    55    2.1   284     4.0   872.2    0.00 
  18    1:50   0.00   34.2    56    2.5   281     3.7   872.0    0.00 
  18    2:00   0.00   34.4    56    2.3   284     3.1   871.9    0.00 
  18    2:10   0.00   33.6    57    1.3   268     2.8   872.0    0.00 
  18    2:20   0.00   33.2    58    3.1   293     4.1   872.0    0.00 
  18    2:30   0.00   36.6    49    2.3   286     4.0   871.9    0.00 
  18    2:40   0.00   34.5    56    3.2   291     4.0   871.8    0.00 
  18    2:50   0.00   34.7    55    3.0   285     4.5   871.8    0.00 
  18    3:00   0.00   34.3    55    3.5   289     4.7   871.7    0.00 
  18    3:10   0.00   34.1    53    2.7   294     4.7   871.6    0.00 
  18    3:20   0.00   34.8    50    2.9   295     3.8   871.6    0.00 
  18    3:30   0.00   34.5    53    3.3   279     4.1   871.6    0.00 
  18    3:40   0.00   33.3    55    2.7   300     4.2   871.5    0.00 
  18    3:50   0.00   34.5    49    2.2   298     3.4   871.5    0.00 
  18    4:00   0.00   34.7    50    3.1   281     4.2   871.5    0.00 
  18    4:10   0.00   34.4    50    3.5   283     4.8   871.5    0.00 
  18    4:20   0.00   34.7    48    3.6   282     4.9   871.5    0.00 
  18    4:30   0.00   33.7    53    3.3   287     4.6   871.4    0.00 
  18    4:40   0.00   33.5    53    3.1   276     4.7   871.4    0.00 
  18    4:50   0.00   33.5    54    2.8   289     4.1   871.3    0.00 
  18    5:00   0.00   33.6    53    2.5   295     3.4   871.3    0.00 
  18    5:10   0.00   33.5    55    2.9   281     3.8   871.4    0.00 
  18    5:20   0.00   32.7    55    3.0   287     3.8   871.4    0.00 
  18    5:30   0.00   32.2    55    2.3   284     3.2   871.6    0.00 
  18    5:40   0.00   34.2    47    2.8   286     3.8   871.7    0.00 
  18    5:50   0.00   34.1    51    3.4   286     4.8   871.7    0.00 
  18    6:00   0.00   35.2    49    1.9   305     3.2   871.8    0.00 
  18    6:10   0.00   34.8    51    0.4   285     2.0   871.8    0.00 
  18    6:20   0.00   34.2    53    1.2   312     3.0   871.9    0.00 
  18    6:30   0.00   33.2    56    1.7   288     3.7   871.8    0.00 
  18    6:40   0.00   33.6    56    3.9   287     4.9   871.7    0.00 
  18    6:50   0.00   31.6    60    4.1   276     4.9   871.7    0.00 
  18    7:00   0.00   32.9    55    2.8   300     4.0   871.7    0.00 
  18    7:10   0.02   33.9    52    1.4   290     2.5   871.7    0.00 
  18    7:20   0.04   36.6    46    1.0   355     3.4   871.8    0.00 
  18    7:30   0.07   38.9    45    1.3   330     3.3   871.7    0.00 
  18    7:40   0.09   39.1    48    2.5   277     3.4   871.6    0.00 
  18    7:50   0.12   42.1    43    2.7   291     3.1   871.7    0.00 
  18    8:00   0.16   44.7    37    1.0   277     3.0   871.7    0.00 
  18    8:10   0.18   48.7    31    0.6   176     2.5   871.8    0.00 
  18    8:20   0.22   48.8    30    2.0   124     3.9   871.8    0.00 
  18    8:30   0.25   49.8    29    1.1   111     2.4   871.7    0.00 
  18    8:40   0.28   51.3    28    0.9   180     2.0   871.7    0.00 
  18    8:50   0.31   52.0    26    1.0   119     3.6   871.8    0.00 
  18    9:00   0.34   50.8    26    1.2   162     3.7   872.0    0.00 
  18    9:10   0.37   51.8    26    1.4   198     2.9   872.1    0.00 
  18    9:20   0.36   52.9    24    1.1   166     2.4   872.2    0.00 
  18    9:30   0.38   50.9    26    2.6   144     6.0   872.2    0.00 
  18    9:40   0.44   50.7    26    1.2   107     5.0   872.3    0.00 
  18    9:50   0.46   51.5    26    1.4   145     3.4   872.3    0.00 
  18   10:00   0.48   51.0    26    2.1   226     4.7   872.3    0.00 
  18   10:10   0.50   51.8    23    1.8   169     7.5   872.3    0.00 
  18   10:20   0.52   52.2    21    2.7   202     7.6   872.3    0.00 
  18   10:30   0.54   52.4    23    2.7   193     6.6   872.3    0.00 
  18   10:40   0.55   51.9    24    3.2   176     6.6   872.2    0.00 
  18   10:50   0.57   51.7    25    2.7   169     7.7   872.0    0.00 
  18   11:00   0.58   52.3    24    3.4   199     7.8   871.9    0.00 
  18   11:10   0.59   52.1    24    3.4   200     7.5   871.8    0.00 
  18   11:20   0.60   51.9    25    3.1   204     9.1   871.7    0.00 
  18   11:30   0.60   52.4    23    4.0   198     8.9   871.5    0.00 
  18   11:40   0.61   52.5    23    3.1   188     8.1   871.2    0.00 
  18   11:50   0.62   53.3    23    2.4   190     6.6   871.0    0.00 
  18   12:00   0.61   53.2    22    3.2   197     7.2   870.8    0.00 
  18   12:10   0.61   52.7    23    3.5   196     8.0   870.6    0.00 
  18   12:20   0.62   52.5    23    3.3   175     9.1   870.4    0.00 
  18   12:30   0.61   52.1    24    2.3   129     8.0   870.2    0.00 
  18   12:40   0.60   52.7    24    2.4    90     7.6   870.1    0.00 
  18   12:50   0.60   53.3    23    4.3   215     9.5   870.1    0.00 
  18   13:00   0.59   52.5    26    3.4   202     6.9   869.9    0.00 
  18   13:10   0.56   52.4    28    3.3   111     8.8   869.6    0.00 
  18   13:20   0.56   52.2    28    3.5   195     8.4   869.5    0.00 
  18   13:30   0.55   52.2    30    2.1   216     6.7   869.2    0.00 
  18   13:40   0.53   52.1    32    4.2   212     7.9   869.1    0.00 
  18   13:50   0.42   51.0    32    5.2   114    11.0   868.9    0.00 
  18   14:00   0.51   51.0    32    3.7   163     8.0   868.7    0.00 
  18   14:10   0.51   51.1    32    3.4   187     8.6   868.5    0.00 
  18   14:20   0.43   51.4    31    3.4   209     7.7   868.6    0.00 
  18   14:30   0.46   51.4    30    2.9   168     7.5   868.7    0.00 
  18   14:40   0.45   51.4    30    2.8   204     6.0   868.7    0.00 
  18   14:50   0.38   51.1    30    4.3   207     9.4   868.8    0.00 
  18   15:00   0.30   51.0    30    3.1   219     5.5   868.5    0.00 
  18   15:10   0.24   51.4    29    2.3   256     8.3   868.5    0.00 
  18   15:20   0.27   50.6    29    3.1   192     6.6   868.5    0.00 
  18   15:30   0.25   50.7    29    3.4   212     7.3   868.5    0.00 
  18   15:40   0.25   49.9    30    3.7   201     7.1   868.4    0.00 
  18   15:50   0.08   48.3    32    3.3   207     5.8   868.3    0.00 
  18   16:00   0.05   47.4    32    2.8   218     4.9   868.1    0.00 
  18   16:10   0.04   46.9    33    3.0   210     5.2   868.1    0.00 
  18   16:20   0.04   46.5    33    2.3   207     4.6   868.1    0.00 
  18   16:30   0.03   46.2    34    3.5   231     5.0   868.4    0.00 
  18   16:40   0.01   45.8    34    2.3   263     4.7   868.3    0.00 
  18   16:50   0.01   45.2    35    1.3   250     2.3   868.3    0.00 
  18   17:00   0.00   45.0    35    2.3   254     3.7   868.5    0.00 
  18   17:10   0.00   44.6    35    2.1   250     3.9   868.6    0.00 
  18   17:20   0.00   45.5    34    1.9   242     5.0   868.7    0.00 
  18   17:30   0.00   45.8    35    1.2   288     5.5   868.8    0.00 
  18   17:40   0.00   45.6    36    3.7   217     6.6   868.8    0.00 
  18   17:50   0.00   45.5    37    0.8   195     3.3   868.8    0.00 
  18   18:00   0.00   45.2    37    1.4   302     3.7   869.0    0.00 
  18   18:10   0.00   45.0    39    4.6   278     8.0   869.0    0.00 
  18   18:20   0.00   46.0    36    4.0   257     7.7   868.8    0.00 
  18   18:30   0.00   46.1    36    2.7   247     5.7   868.8    0.00 
  18   18:40   0.00   46.1    36    2.5   232     6.4   868.8    0.00 
  18   18:50   0.00   46.0    36    2.4   235     4.7   868.7    0.00 
  18   19:00   0.00   45.3    38    1.9   260     3.1   868.8    0.00 
  18   19:10   0.00   45.3    37    2.2   235     4.7   868.7    0.00 
  18   19:20   0.00   45.6    36    2.6   232     6.1   868.8    0.00 
  18   19:30   0.00   45.3    38    2.4   213     4.2   868.9    0.00 
  18   19:40   0.00   44.6    40    1.4   175     3.2   868.9    0.00 
  18   19:50   0.00   44.2    40    1.6   187     3.8   868.9    0.00 
  18   20:00   0.00   44.5    38    0.6   208     2.9   868.9    0.00 

Return to Sweeney Granite Mountains graphs page.


Western Regional Climate Center,wrcc@dri.edu